Time;durP1;ratioP1;P1;durP2;ratioP2;P2;SDS_P1;SDS_P2;PMS_P1;PMS_P2;Temp;Humidity;BMP_temperature;BMP_pressure;BME280_temperature;BME280_humidity;BME280_pressure;Samples;Min_cycle;Max_cycle;Signal;HPM_P1;HPM_P2
2022/09/30 00:02:13;;;;;;;11.35;3.00;;;;;;;23.98;47.74;101222.47;5013379;28;20034;-50
2022/09/30 00:04:39;;;;;;;11.18;3.15;;;;;;;23.62;48.60;101210.19;5013640;28;20072;-47
2022/09/30 00:07:06;;;;;;;8.60;3.05;;;;;;;23.79;49.32;101218.00;5013905;28;20037;-51
2022/09/30 00:09:32;;;;;;;12.00;2.88;;;;;;;23.66;49.47;101214.00;5013913;28;20205;-51
2022/09/30 00:11:58;;;;;;;10.52;2.63;;;;;;;23.83;49.12;101219.91;5013307;28;20056;-51
2022/09/30 00:14:24;;;;;;;12.13;3.08;;;;;;;23.26;49.81;101212.31;5013580;28;20022;-48
2022/09/30 00:16:51;;;;;;;15.13;2.92;;;;;;;23.09;50.54;101210.75;5028452;28;20129;-50
2022/09/30 00:19:17;;;;;;;11.60;3.00;;;;;;;23.05;50.67;101211.63;5013406;28;20021;-49
2022/09/30 00:21:44;;;;;;;8.70;2.90;;;;;;;22.87;51.35;101202.09;5013156;28;20030;-51
2022/09/30 00:24:10;;;;;;;11.60;3.13;;;;;;;22.87;51.51;101197.47;5013531;28;20040;-51
2022/09/30 00:26:37;;;;;;;10.10;3.15;;;;;;;22.90;51.15;101199.66;5013426;28;20060;-49
2022/09/30 00:29:03;;;;;;;10.93;3.45;;;;;;;22.95;50.93;101198.00;5013408;28;20374;-47
2022/09/30 00:31:32;;;;;;;8.90;2.95;;;;;;;23.07;50.70;101198.50;5013013;28;20029;-51
2022/09/30 00:34:07;;;;;;;11.27;3.08;;;;;;;23.13;50.35;101191.91;5012311;28;20050;-48
2022/09/30 00:36:39;;;;;;;12.95;3.35;;;;;;;23.01;50.88;101194.16;5015826;28;20037;-51
2022/09/30 00:39:08;;;;;;;8.15;3.30;;;;;;;22.99;50.53;101193.63;5015179;28;20519;-49
2022/09/30 00:41:34;;;;;;;13.10;3.55;;;;;;;22.76;52.28;101190.41;5018702;28;20065;-47
2022/09/30 00:44:01;;;;;;;15.30;3.25;;;;;;;22.62;52.43;101192.09;5026699;28;20414;-47
2022/09/30 00:46:34;;;;;;;12.32;3.42;;;;;;;22.52;53.03;101186.66;5011297;28;20701;-48
2022/09/30 00:49:07;;;;;;;15.77;3.50;;;;;;;22.57;53.10;101187.47;5026179;28;20094;-50
2022/09/30 00:51:38;;;;;;;10.52;3.47;;;;;;;22.66;53.15;101185.81;5025744;28;20076;-49
2022/09/30 00:54:13;;;;;;;12.38;3.15;;;;;;;22.78;52.34;101190.13;5025572;28;20188;-49
2022/09/30 00:56:45;;;;;;;10.30;3.63;;;;;;;22.51;52.62;101187.78;5031857;28;20525;-50
2022/09/30 00:59:19;;;;;;;8.63;3.33;;;;;;;22.33;53.05;101183.72;5025704;28;20036;-49
2022/09/30 01:01:45;;;;;;;14.87;3.43;;;;;;;22.36;53.08;101191.34;5012293;28;20441;-46
2022/09/30 01:04:21;;;;;;;8.63;2.75;;;;;;;22.44;53.56;101184.53;5008359;23;20116;-50
2022/09/30 01:06:48;;;;;;;11.15;3.50;;;;;;;22.26;52.99;101186.72;5024893;28;20116;-48
2022/09/30 01:09:15;;;;;;;16.50;3.40;;;;;;;22.04;54.00;101176.13;5031537;28;20037;-47
2022/09/30 01:11:41;;;;;;;13.38;3.47;;;;;;;22.30;53.66;101174.19;5012177;28;20037;-48
2022/09/30 01:14:12;;;;;;;12.75;3.25;;;;;;;22.28;53.74;101170.09;4995873;28;20497;-47
2022/09/30 01:16:57;;;;;;;13.35;4.03;;;;;;;22.39;53.21;101172.53;5001583;28;20022;-47
2022/09/30 01:19:48;;;;;;;14.88;3.55;;;;;;;22.10;54.07;101174.22;5003745;28;20111;-47
2022/09/30 01:22:32;;;;;;;9.90;3.47;;;;;;;22.16;53.93;101169.59;4992827;28;20061;-47
2022/09/30 01:25:35;;;;;;;12.67;3.33;;;;;;;21.78;54.75;101163.59;5004029;28;20108;-47
2022/09/30 01:28:30;;;;;;;13.18;3.45;;;;;;;21.78;55.23;101166.31;5004051;28;20034;-50
2022/09/30 01:31:20;;;;;;;12.27;3.28;;;;;;;21.66;55.52;101168.50;4990551;28;20061;-46
2022/09/30 01:34:14;;;;;;;13.05;3.20;;;;;;;21.55;56.07;101156.78;4996379;28;20407;-47
2022/09/30 01:36:52;;;;;;;18.90;4.07;;;;;;;21.50;56.22;101164.94;4992319;28;20101;-47
2022/09/30 01:39:39;;;;;;;16.27;3.88;;;;;;;21.31;56.96;101170.88;4994171;28;20048;-46
2022/09/30 01:42:24;;;;;;;14.95;3.45;;;;;;;21.39;56.87;101171.47;4991626;28;20499;-46
2022/09/30 01:45:09;;;;;;;18.25;3.78;;;;;;;21.26;57.52;101173.56;5022021;28;20502;-50
2022/09/30 01:47:48;;;;;;;22.23;3.70;;;;;;;21.13;57.65;101168.66;5004439;28;20111;-47
2022/09/30 01:50:38;;;;;;;11.07;3.28;;;;;;;21.24;57.34;101172.22;5009247;28;20034;-47
2022/09/30 01:53:15;;;;;;;17.20;3.88;;;;;;;21.19;57.36;101172.19;5010491;28;20117;-47
2022/09/30 01:56:00;;;;;;;21.75;4.60;;;;;;;21.17;57.62;101174.38;5011751;28;20038;-46
2022/09/30 01:58:40;;;;;;;12.90;3.38;;;;;;;20.98;57.83;101187.66;5000604;28;20064;-47
2022/09/30 02:01:15;;;;;;;13.13;4.25;;;;;;;21.00;57.67;101175.44;5010584;28;20461;-46
2022/09/30 02:04:10;;;;;;;16.10;4.07;;;;;;;21.04;58.35;101167.53;5008990;28;20041;-49
2022/09/30 02:06:43;;;;;;;15.40;4.30;;;;;;;20.52;59.73;101163.78;5009842;28;20038;-49
2022/09/30 02:09:49;;;;;;;14.82;3.95;;;;;;;20.21;61.26;101170.94;5011435;28;20113;-48
2022/09/30 02:12:18;;;;;;;;;;;;;;;20.07;61.56;101161.59;5007884;28;20041;-47
2022/09/30 02:14:56;;;;;;;15.00;3.78;;;;;;;20.24;61.19;101162.25;5005661;28;19921;-48
2022/09/30 02:17:29;;;;;;;19.02;4.85;;;;;;;19.98;62.17;101163.16;5007732;28;20133;-50
2022/09/30 02:20:22;;;;;;;16.83;4.43;;;;;;;19.85;62.66;101166.31;5011402;28;20030;-50
2022/09/30 02:22:56;;;;;;;22.70;5.00;;;;;;;19.86;62.88;101157.91;5015313;28;20378;-48
2022/09/30 02:25:35;;;;;;;17.98;4.68;;;;;;;19.77;62.78;101159.47;5013810;28;20025;-51
2022/09/30 02:28:07;;;;;;;22.38;5.20;;;;;;;19.75;63.57;101150.75;5013724;28;20522;-47
2022/09/30 02:30:37;;;;;;;14.82;4.47;;;;;;;19.77;62.92;101149.44;5002088;28;20418;-47
2022/09/30 02:33:10;;;;;;;13.43;4.07;;;;;;;19.79;63.05;101146.44;5014978;28;20052;-49
2022/09/30 02:35:56;;;;;;;21.85;4.68;;;;;;;19.41;64.07;101148.25;5013797;28;20030;-46
2022/09/30 02:38:30;;;;;;;18.70;4.72;;;;;;;19.44;63.80;101149.66;4995555;28;20113;-50
2022/09/30 02:41:11;;;;;;;20.10;5.13;;;;;;;19.38;64.14;101150.69;5006425;28;20084;-49
2022/09/30 02:43:40;;;;;;;21.80;5.60;;;;;;;19.52;63.78;101149.19;5010578;28;20466;-50
2022/09/30 02:46:18;;;;;;;18.38;5.15;;;;;;;19.38;64.52;101145.25;5002719;28;20022;-49
2022/09/30 02:49:03;;;;;;;17.00;4.88;;;;;;;19.34;65.09;101144.13;4995618;28;20478;-50
2022/09/30 02:51:32;;;;;;;18.77;4.63;;;;;;;19.18;65.83;101154.81;4994918;28;20038;-48
2022/09/30 02:54:15;;;;;;;20.80;5.18;;;;;;;19.18;65.53;101149.41;5017780;28;20161;-49
2022/09/30 02:57:17;;;;;;;20.05;4.82;;;;;;;19.34;65.08;101138.69;5014876;28;20481;-50
2022/09/30 02:59:46;;;;;;;23.35;4.75;;;;;;;19.29;65.30;101142.19;5014872;28;20026;-49
2022/09/30 03:02:14;;;;;;;17.83;4.70;;;;;;;19.20;65.83;101143.72;5013368;28;20046;-50
2022/09/30 03:04:42;;;;;;;15.98;4.60;;;;;;;19.34;65.41;101139.53;4995060;28;20079;-50
2022/09/30 03:07:09;;;;;;;23.70;4.93;;;;;;;19.07;66.35;101144.13;4995296;28;20109;-47
2022/09/30 03:09:35;;;;;;;19.73;4.53;;;;;;;19.04;66.57;101144.63;5000041;28;20022;-47
2022/09/30 03:12:16;;;;;;;24.98;4.75;;;;;;;19.07;66.35;101139.50;5014031;28;20029;-47
2022/09/30 03:15:10;;;;;;;19.95;5.30;;;;;;;18.95;67.25;101136.13;5014564;28;20044;-50
2022/09/30 03:17:45;;;;;;;23.45;5.88;;;;;;;18.89;67.74;101137.16;5014345;28;20467;-46
2022/09/30 03:20:45;;;;;;;22.77;5.68;;;;;;;18.70;68.69;101144.78;5014680;28;20029;-51
2022/09/30 03:23:29;;;;;;;33.90;6.55;;;;;;;18.47;69.99;101146.63;5014033;28;20413;-50
2022/09/30 03:26:15;;;;;;;24.40;5.00;;;;;;;18.54;69.01;101146.44;5014456;28;20229;-49
2022/09/30 03:28:59;;;;;;;23.88;6.20;;;;;;;18.59;68.44;101140.28;4994754;28;20014;-46
2022/09/30 03:31:49;;;;;;;20.98;5.22;;;;;;;18.46;69.16;101145.00;4994588;28;20026;-50
2022/09/30 03:34:27;;;;;;;21.40;5.70;;;;;;;18.64;68.98;101143.03;4994588;28;20029;-48
2022/09/30 03:37:25;;;;;;;20.38;5.88;;;;;;;18.60;68.81;101152.75;4994746;28;20045;-50
2022/09/30 03:40:09;;;;;;;25.15;5.95;;;;;;;18.42;69.51;101153.88;5029865;28;20080;-49
2022/09/30 03:42:38;;;;;;;25.08;5.57;;;;;;;18.43;69.50;101147.38;5010945;28;20042;-50
2022/09/30 03:45:07;;;;;;;25.20;5.95;;;;;;;18.31;70.27;101144.78;5013934;28;20446;-50
2022/09/30 03:47:40;;;;;;;22.55;5.95;;;;;;;18.53;69.58;101154.84;5013486;28;20478;-47
2022/09/30 03:50:10;;;;;;;24.02;6.13;;;;;;;18.23;71.24;101156.06;5014180;28;20034;-46
2022/09/30 03:52:37;;;;;;;35.42;7.40;;;;;;;18.21;71.45;101152.75;5013658;28;20041;-50
2022/09/30 03:55:07;;;;;;;22.02;6.10;;;;;;;18.28;71.60;101158.03;5013818;28;20037;-50
2022/09/30 03:57:33;;;;;;;18.60;5.22;;;;;;;18.11;71.99;101153.47;5013874;28;20429;-49
2022/09/30 04:00:00;;;;;;;22.00;6.63;;;;;;;18.21;71.90;101155.47;5013468;28;20448;-50
2022/09/30 04:02:27;;;;;;;27.38;5.47;;;;;;;18.31;71.23;101146.66;5013221;28;20073;-50
2022/09/30 04:04:53;;;;;;;23.02;5.63;;;;;;;18.34;70.88;101154.31;5013808;28;20129;-49
2022/09/30 04:07:19;;;;;;;22.02;5.65;;;;;;;18.18;71.48;101150.56;5013672;28;20033;-49
2022/09/30 04:09:45;;;;;;;30.50;6.53;;;;;;;18.02;72.17;101152.22;5013733;28;20029;-50
2022/09/30 04:12:11;;;;;;;24.02;6.20;;;;;;;17.88;73.09;101150.94;5013565;28;20040;-50
2022/09/30 04:14:38;;;;;;;21.73;5.88;;;;;;;18.08;72.56;101150.41;5014092;28;20034;-47
2022/09/30 04:17:05;;;;;;;27.38;6.22;;;;;;;18.19;72.34;101146.78;5013325;28;20080;-50
2022/09/30 04:19:36;;;;;;;22.85;5.93;;;;;;;18.01;72.80;101142.47;5013446;28;20034;-49
2022/09/30 04:22:03;;;;;;;23.23;6.22;;;;;;;18.24;72.10;101151.47;5013319;28;20033;-48
2022/09/30 04:24:29;;;;;;;25.23;6.78;;;;;;;18.11;71.63;101148.03;5013242;28;20454;-48
2022/09/30 04:26:55;;;;;;;25.30;7.35;;;;;;;18.13;72.22;101151.31;5013306;28;20037;-50
2022/09/30 04:29:21;;;;;;;25.30;7.68;;;;;;;18.05;72.65;101156.34;5004308;28;20544;-48
2022/09/30 04:31:48;;;;;;;31.08;8.15;;;;;;;17.90;73.37;101151.50;4993214;28;20033;-50
2022/09/30 04:34:14;;;;;;;31.33;8.05;;;;;;;17.96;73.16;101155.09;4995893;28;20030;-47
2022/09/30 04:36:40;;;;;;;26.75;7.22;;;;;;;17.76;74.13;101155.59;5012008;28;20029;-47
2022/09/30 04:39:06;;;;;;;28.75;8.75;;;;;;;17.75;74.05;101149.34;5016879;28;20505;-49
2022/09/30 04:41:33;;;;;;;26.23;8.10;;;;;;;17.85;73.16;101143.28;5012592;28;20034;-48
2022/09/30 04:44:04;;;;;;;31.42;7.22;;;;;;;17.80;73.26;101157.56;5012418;28;20573;-49
2022/09/30 04:46:33;;;;;;;26.75;6.82;;;;;;;17.79;73.51;101147.81;5012878;28;20030;-50
2022/09/30 04:48:59;;;;;;;29.30;7.22;;;;;;;17.82;73.83;101144.63;5013314;28;20386;-48
2022/09/30 04:51:26;;;;;;;27.05;8.10;;;;;;;17.63;74.49;101149.41;5012344;28;20502;-49
2022/09/30 04:53:52;;;;;;;25.52;8.02;;;;;;;17.63;74.72;101152.13;5012716;28;20026;-49
2022/09/30 04:56:18;;;;;;;27.17;7.35;;;;;;;17.73;74.04;101145.28;5012807;28;20030;-50
2022/09/30 04:58:44;;;;;;;24.60;7.38;;;;;;;17.76;74.00;101144.75;5013025;28;20062;-50
2022/09/30 05:01:13;;;;;;;32.67;8.73;;;;;;;17.81;73.74;101142.97;5012338;28;20018;-47
2022/09/30 05:03:40;;;;;;;25.02;6.38;;;;;;;17.39;76.00;101151.44;5012546;28;20057;-53
2022/09/30 05:06:07;;;;;;;30.35;7.53;;;;;;;17.64;75.60;101147.53;5012567;28;20045;-50
2022/09/30 05:08:33;;;;;;;31.00;8.00;;;;;;;17.65;74.69;101146.44;5012392;28;20037;-47
2022/09/30 05:11:08;;;;;;;31.65;8.75;;;;;;;17.51;75.31;101145.13;5012485;28;20029;-48
2022/09/30 05:13:37;;;;;;;29.88;7.38;;;;;;;17.41;75.68;101143.88;5013892;28;20049;-48
2022/09/30 05:16:05;;;;;;;30.67;7.55;;;;;;;17.24;76.07;101142.22;5010812;28;20049;-50
2022/09/30 05:18:35;;;;;;;35.28;7.60;;;;;;;17.43;75.50;101138.22;5012550;28;20017;-47
2022/09/30 05:21:02;;;;;;;27.48;7.65;;;;;;;17.23;75.95;101140.59;5010769;28;20179;-46
2022/09/30 05:23:30;;;;;;;36.90;7.63;;;;;;;17.24;75.67;101145.75;5012393;28;20482;-48
2022/09/30 05:25:58;;;;;;;41.33;7.05;;;;;;;17.18;76.26;101152.13;5009321;28;20041;-48
2022/09/30 05:28:24;;;;;;;33.25;8.00;;;;;;;17.23;76.20;101151.41;5011144;28;20038;-50
2022/09/30 05:30:59;;;;;;;32.53;7.18;;;;;;;17.30;76.20;101160.19;5006822;28;20033;-48
2022/09/30 05:33:26;;;;;;;35.70;7.82;;;;;;;17.22;76.16;101149.78;5012190;28;20085;-47
2022/09/30 05:35:52;;;;;;;30.38;6.80;;;;;;;17.22;76.58;101147.88;5009809;28;20406;-47
2022/09/30 05:38:18;;;;;;;28.90;6.95;;;;;;;17.20;76.78;101152.69;5010579;28;20060;-46
2022/09/30 05:40:44;;;;;;;29.98;7.88;;;;;;;17.10;77.29;101147.94;5010394;28;20022;-47
2022/09/30 05:43:11;;;;;;;29.42;8.30;;;;;;;17.01;77.27;101146.69;5010498;28;20041;-46
2022/09/30 05:45:38;;;;;;;36.17;7.72;;;;;;;16.92;78.11;101148.09;5010322;28;20474;-49
2022/09/30 05:48:05;;;;;;;31.27;7.00;;;;;;;17.02;77.57;101151.00;5011843;28;20029;-49
2022/09/30 05:50:32;;;;;;;37.05;8.30;;;;;;;16.76;78.32;101148.88;5010011;28;20087;-49
2022/09/30 05:52:59;;;;;;;35.13;8.07;;;;;;;16.56;79.29;101146.53;5011539;28;20482;-49
2022/09/30 05:55:25;;;;;;;30.10;7.82;;;;;;;16.72;78.47;101142.31;5010301;28;20025;-50
2022/09/30 05:57:52;;;;;;;34.08;8.05;;;;;;;16.72;78.64;101145.84;5011761;28;20443;-50
2022/09/30 06:00:19;;;;;;;33.03;7.15;;;;;;;16.70;78.73;101141.69;5011788;28;20033;-48
2022/09/30 06:02:45;;;;;;;39.28;8.55;;;;;;;16.74;77.99;101143.72;4990039;28;20023;-49
2022/09/30 06:05:12;;;;;;;33.28;7.90;;;;;;;16.72;77.97;101147.72;4991614;28;20100;-50
2022/09/30 06:07:39;;;;;;;35.25;7.75;;;;;;;16.74;77.98;101145.59;5005673;28;20089;-49
2022/09/30 06:10:11;;;;;;;42.15;9.85;;;;;;;16.68;77.95;101150.03;4992433;28;20080;-50
2022/09/30 06:12:38;;;;;;;31.35;7.20;;;;;;;16.74;77.48;101142.88;5010054;28;20080;-49
2022/09/30 06:15:05;;;;;;;34.67;7.53;;;;;;;16.73;77.70;101143.94;5011683;28;20030;-50
2022/09/30 06:17:31;;;;;;;30.15;8.20;;;;;;;16.77;76.92;101139.72;5010283;28;20029;-49
2022/09/30 06:19:58;;;;;;;30.85;8.13;;;;;;;16.58;77.76;101141.72;5007211;28;20031;-48
2022/09/30 06:22:25;;;;;;;34.15;8.30;;;;;;;16.61;77.72;101139.38;5006428;28;20386;-49
2022/09/30 06:24:52;;;;;;;29.65;8.23;;;;;;;16.78;77.25;101142.16;5011799;28;20028;-49
2022/09/30 06:27:18;;;;;;;37.20;8.00;;;;;;;16.62;77.58;101140.19;5006609;28;20045;-50
2022/09/30 06:29:44;;;;;;;35.30;8.15;;;;;;;16.92;76.53;101140.00;5011664;28;20072;-46
2022/09/30 06:32:10;;;;;;;27.90;7.82;;;;;;;16.94;76.53;101137.88;5009965;28;20096;-49
2022/09/30 06:34:37;;;;;;;36.13;8.23;;;;;;;16.86;76.41;101130.16;4992115;28;20109;-48
2022/09/30 06:37:03;;;;;;;28.85;7.25;;;;;;;17.04;75.56;101129.94;5002548;28;20118;-47
2022/09/30 06:39:30;;;;;;;31.90;7.35;;;;;;;16.89;76.27;101135.09;5009971;28;20037;-46
2022/09/30 06:41:56;;;;;;;26.83;6.38;;;;;;;16.94;75.82;101131.66;5009438;28;20038;-47
2022/09/30 06:44:22;;;;;;;29.65;8.02;;;;;;;16.96;75.66;101130.34;5011695;28;20022;-50
2022/09/30 06:46:48;;;;;;;32.70;7.75;;;;;;;17.09;75.34;101124.63;4994061;28;20022;-50
2022/09/30 06:49:15;;;;;;;24.45;7.30;;;;;;;17.08;75.11;101123.00;5001731;28;20375;-50
2022/09/30 06:51:41;;;;;;;22.00;6.53;;;;;;;17.05;75.17;101118.09;4989410;28;20038;-46
2022/09/30 06:54:07;;;;;;;31.13;7.47;;;;;;;17.10;75.05;101120.91;4991247;28;20022;-49
2022/09/30 06:56:34;;;;;;;26.98;7.88;;;;;;;17.22;74.43;101122.72;4991049;28;20100;-47
2022/09/30 06:59:00;;;;;;;27.50;6.75;;;;;;;17.08;74.78;101117.59;4990354;28;20152;-46
2022/09/30 07:01:28;;;;;;;34.70;6.97;;;;;;;17.05;74.79;101115.38;4990462;28;20027;-50
2022/09/30 07:03:56;;;;;;;26.52;7.47;;;;;;;17.05;74.91;101111.88;4995583;28;20043;-47
2022/09/30 07:06:25;;;;;;;21.85;7.03;;;;;;;16.88;75.80;101120.75;4993724;28;20109;-51
2022/09/30 07:08:52;;;;;;;31.67;7.53;;;;;;;16.85;75.74;101115.00;4995103;28;20026;-47
2022/09/30 07:11:19;;;;;;;25.40;6.70;;;;;;;17.00;75.37;101111.78;4992736;28;20085;-48
2022/09/30 07:13:48;;;;;;;28.13;8.13;;;;;;;16.95;75.80;101111.66;4994517;28;20026;-46
2022/09/30 07:16:16;;;;;;;27.98;6.82;;;;;;;17.00;75.28;101109.88;4993218;28;20213;-47
2022/09/30 07:18:44;;;;;;;28.30;7.60;;;;;;;16.83;75.91;101117.13;4994299;28;20491;-49
2022/09/30 07:21:14;;;;;;;23.92;6.53;;;;;;;16.92;75.78;101106.72;4993167;28;20035;-49
2022/09/30 07:23:46;;;;;;;26.92;6.10;;;;;;;16.93;75.46;101111.06;5008454;28;20101;-46
2022/09/30 07:26:16;;;;;;;29.25;7.82;;;;;;;16.80;75.48;101117.59;4993468;28;20394;-45
2022/09/30 07:28:43;;;;;;;27.00;7.15;;;;;;;16.89;75.39;101108.06;4994297;28;20427;-48
2022/09/30 07:31:16;;;;;;;33.35;6.85;;;;;;;17.03;74.85;101106.69;4995697;28;20073;-50
2022/09/30 07:33:43;;;;;;;30.17;7.70;;;;;;;16.98;75.07;101103.06;4994138;28;20084;-48
2022/09/30 07:36:11;;;;;;;28.92;6.78;;;;;;;16.99;74.93;101110.94;4995993;28;20030;-47
2022/09/30 07:38:40;;;;;;;27.40;6.65;;;;;;;16.98;75.04;101106.59;4994428;28;20058;-48
2022/09/30 07:41:10;;;;;;;32.20;7.75;;;;;;;16.95;76.04;101106.25;4992378;28;20394;-46
2022/09/30 07:43:40;;;;;;;34.00;7.15;;;;;;;16.82;76.46;101107.34;4994601;28;20096;-45
2022/09/30 07:46:14;;;;;;;24.55;6.95;;;;;;;16.64;77.32;101100.22;4993463;28;20551;-45
2022/09/30 07:48:43;;;;;;;28.90;7.63;;;;;;;16.76;76.85;101102.91;4998061;28;20030;-48
2022/09/30 07:51:26;;;;;;;36.17;7.32;;;;;;;16.80;76.83;101094.09;4996993;28;20022;-47
2022/09/30 07:53:54;;;;;;;29.00;7.20;;;;;;;16.82;76.38;101093.84;5007722;28;20516;-46
2022/09/30 07:56:22;;;;;;;34.17;7.53;;;;;;;16.85;76.38;101093.38;4994379;28;20039;-46
2022/09/30 07:58:52;;;;;;;30.83;7.30;;;;;;;16.82;76.47;101086.56;5008269;28;20100;-50
2022/09/30 08:01:18;;;;;;;27.23;7.40;;;;;;;16.94;75.77;101093.81;5012930;28;20108;-47
2022/09/30 08:03:45;;;;;;;27.30;7.28;;;;;;;16.73;76.35;101098.81;4994549;28;20050;-48
2022/09/30 08:06:14;;;;;;;33.20;7.07;;;;;;;16.73;76.53;101089.91;4992470;28;20038;-46
2022/09/30 08:08:42;;;;;;;30.88;7.32;;;;;;;16.76;76.42;101086.69;5006212;28;20568;-47
2022/09/30 08:11:10;;;;;;;28.00;6.70;;;;;;;16.74;76.92;101088.81;4992677;28;20030;-48
2022/09/30 08:13:36;;;;;;;27.50;7.32;;;;;;;16.92;76.38;101085.09;4994377;28;20046;-50
2022/09/30 08:16:04;;;;;;;25.52;7.05;;;;;;;16.67;76.90;101088.13;4993551;28;20030;-49
2022/09/30 08:18:31;;;;;;;23.00;6.60;;;;;;;16.66;76.70;101092.72;4990435;28;20037;-48
2022/09/30 08:21:03;;;;;;;23.65;7.10;;;;;;;16.70;76.63;101098.44;4991121;28;20041;-46
2022/09/30 08:23:30;;;;;;;28.20;6.68;;;;;;;16.72;76.02;101093.66;5002661;28;20033;-50
2022/09/30 08:26:05;;;;;;;29.33;6.75;;;;;;;16.78;75.98;101100.81;5002688;28;20030;-46
2022/09/30 08:28:32;;;;;;;26.58;7.80;;;;;;;16.72;76.26;101097.19;4998983;28;20491;-45
2022/09/30 08:31:16;;;;;;;28.65;7.90;;;;;;;16.81;75.96;101084.09;4991846;28;20042;-47
2022/09/30 08:33:43;;;;;;;33.20;7.72;;;;;;;16.75;76.13;101091.28;4994296;28;20032;-49
2022/09/30 08:36:17;;;;;;;23.35;6.18;;;;;;;16.52;76.80;101089.44;4993900;28;20096;-46
2022/09/30 08:38:45;;;;;;;30.40;7.30;;;;;;;16.48;76.41;101090.16;4994027;28;26297;-46
2022/09/30 08:41:58;;;;;;;30.95;7.05;;;;;;;16.47;76.67;101100.16;4990937;28;20037;-46
2022/09/30 08:44:45;;;;;;;26.90;7.22;;;;;;;16.34;76.84;101090.44;5002126;28;20041;-46
2022/09/30 08:47:35;;;;;;;28.70;6.97;;;;;;;16.26;75.91;101095.38;5011623;28;20084;-49
2022/09/30 08:50:22;;;;;;;26.02;5.85;;;;;;;16.07;76.05;101095.50;4992136;28;20026;-49
2022/09/30 08:52:53;;;;;;;15.80;4.03;;;;;;;15.93;75.08;101098.69;4992563;28;20136;-47
2022/09/30 08:55:46;;;;;;;13.90;3.85;;;;;;;15.92;74.58;101097.88;4995788;28;20486;-50
2022/09/30 08:58:32;;;;;;;12.95;3.58;;;;;;;16.01;73.59;101091.06;4993021;28;20034;-46
2022/09/30 09:01:14;;;;;;;20.02;4.60;;;;;;;15.98;73.61;101096.09;4995703;28;20034;-46
2022/09/30 09:03:41;;;;;;;15.63;4.32;;;;;;;15.91;73.74;101085.44;4992117;28;20062;-47
2022/09/30 09:06:29;;;;;;;17.63;5.40;;;;;;;15.93;73.66;101091.41;4993673;28;20037;-46
2022/09/30 09:09:25;;;;;;;16.83;4.70;;;;;;;15.84;73.51;101098.22;4992452;28;20026;-46
2022/09/30 09:12:07;;;;;;;20.20;4.97;;;;;;;15.79;73.42;101098.09;4992013;28;20033;-47
2022/09/30 09:14:56;;;;;;;14.25;3.95;;;;;;;15.81;72.87;101095.97;4994433;28;20045;-47
2022/09/30 09:17:43;;;;;;;11.45;3.08;;;;;;;15.64;72.08;101089.63;4992670;28;20019;-49
2022/09/30 09:20:16;;;;;;;8.43;2.65;;;;;;;15.54;71.25;101093.69;5002079;28;20049;-48
2022/09/30 09:22:44;;;;;;;13.07;2.72;;;;;;;15.50;71.54;101100.63;5007391;28;20032;-47
2022/09/30 09:25:21;;;;;;;5.68;2.33;;;;;;;15.60;70.62;101094.63;5001866;28;20479;-48
2022/09/30 09:28:34;;;;;;;11.15;2.70;;;;;;;15.59;70.55;101101.09;5012121;28;20049;-50
2022/09/30 09:31:01;;;;;;;8.38;2.40;;;;;;;15.64;70.27;101101.25;4999120;28;20034;-47
2022/09/30 09:33:31;;;;;;;9.82;3.33;;;;;;;15.56;70.09;101102.41;5010055;28;20227;-46
2022/09/30 09:36:29;;;;;;;10.48;3.33;;;;;;;15.52;70.20;101097.69;5011392;28;20018;-46
2022/09/30 09:39:35;;;;;;;6.78;2.92;;;;;;;15.52;69.91;101090.41;5010817;28;20057;-46
2022/09/30 09:42:04;;;;;;;;;;;;;;;15.47;69.84;101090.28;5008564;28;20525;-46
2022/09/30 09:44:54;;;;;;;7.80;2.38;;;;;;;15.44;69.89;101089.94;5008402;28;19917;-46
2022/09/30 09:47:20;;;;;;;6.38;2.50;;;;;;;15.25;70.68;101090.00;5009693;28;20180;-48
2022/09/30 09:49:59;;;;;;;8.18;3.05;;;;;;;15.21;70.73;101091.53;5007820;28;20146;-50
2022/09/30 09:52:38;;;;;;;9.85;3.10;;;;;;;15.07;70.99;101089.25;5008076;28;20048;-46
2022/09/30 09:55:05;;;;;;;9.98;2.60;;;;;;;15.07;70.64;101083.88;5009709;28;20033;-48
2022/09/30 09:57:32;;;;;;;7.78;2.58;;;;;;;15.13;70.36;101081.06;5007737;28;20041;-47
2022/09/30 10:03:11;;;;;;;11.90;3.17;;;;;;;15.11;70.02;101079.66;5006508;28;20057;-46
2022/09/30 10:05:41;;;;;;;8.40;2.80;;;;;;;14.96;70.43;101075.50;5009670;28;20483;-49
2022/09/30 10:08:21;;;;;;;6.70;2.53;;;;;;;14.96;70.51;101078.22;5007307;28;20068;-45
2022/09/30 10:10:59;;;;;;;11.45;2.65;;;;;;;15.00;70.58;101074.00;5009191;28;20064;-47
2022/09/30 10:13:28;;;;;;;8.25;2.80;;;;;;;14.98;70.89;101068.00;4990568;28;20057;-47
2022/09/30 10:15:59;;;;;;;7.43;2.40;;;;;;;15.01;70.80;101070.25;5011277;28;20084;-46
2022/09/30 10:18:33;;;;;;;11.63;3.38;;;;;;;14.89;71.11;101061.31;5010294;28;20037;-48
2022/09/30 10:21:06;;;;;;;14.27;3.10;;;;;;;14.86;71.20;101055.56;5011863;28;20359;-49
2022/09/30 10:23:39;;;;;;;10.93;2.45;;;;;;;14.88;71.25;101056.97;5009490;28;20034;-47
2022/09/30 10:26:14;;;;;;;8.38;2.50;;;;;;;14.87;71.24;101049.94;5009021;28;20486;-50
2022/09/30 10:28:58;;;;;;;12.15;2.70;;;;;;;14.89;71.09;101050.53;5009654;28;20048;-45
2022/09/30 10:31:27;;;;;;;8.73;3.08;;;;;;;14.82;70.82;101048.97;5011439;28;20486;-46
2022/09/30 10:34:08;;;;;;;7.97;2.20;;;;;;;14.81;70.54;101048.16;5010560;28;20478;-46
2022/09/30 10:36:36;;;;;;;4.75;2.20;;;;;;;14.66;70.83;101048.56;5011695;28;20072;-46
2022/09/30 10:39:07;;;;;;;5.75;2.28;;;;;;;14.69;70.72;101039.19;5008105;28;20396;-45
2022/09/30 10:41:37;;;;;;;6.40;2.38;;;;;;;14.61;70.87;101047.63;5013559;28;20022;-46
2022/09/30 10:44:15;;;;;;;10.07;1.92;;;;;;;14.63;70.69;101050.88;5011532;28;20032;-48
2022/09/30 10:46:44;;;;;;;8.13;2.65;;;;;;;14.58;70.96;101056.13;5015579;28;20033;-48
2022/09/30 10:49:45;;;;;;;8.55;2.63;;;;;;;14.58;71.12;101053.44;5001420;28;20030;-46
2022/09/30 10:52:25;;;;;;;7.90;2.88;;;;;;;14.64;71.08;101055.22;4995131;28;20026;-47
2022/09/30 10:54:57;;;;;;;8.15;2.63;;;;;;;14.15;72.76;101054.34;5004502;28;20386;-46
2022/09/30 10:57:28;;;;;;;7.97;2.33;;;;;;;13.77;73.77;101052.69;5000538;28;20026;-49
2022/09/30 11:00:07;;;;;;;10.05;2.28;;;;;;;13.82;73.27;101055.50;4992662;28;20034;-46
2022/09/30 11:02:38;;;;;;;3.95;2.08;;;;;;;13.99;72.84;101061.97;4996216;28;20578;-45
2022/09/30 11:05:23;;;;;;;4.97;2.00;;;;;;;14.07;72.44;101049.25;4992854;28;20387;-49
2022/09/30 11:07:52;;;;;;;6.07;2.28;;;;;;;13.93;72.76;101051.25;4993656;28;20030;-46
2022/09/30 11:10:52;;;;;;;5.97;2.08;;;;;;;14.14;71.96;101056.22;4993750;28;20034;-46
2022/09/30 11:13:24;;;;;;;6.57;2.03;;;;;;;14.17;71.52;101054.94;4994381;28;20061;-46
2022/09/30 11:16:09;;;;;;;4.88;2.03;;;;;;;14.03;71.98;101051.56;4993960;28;20030;-46
2022/09/30 11:18:49;;;;;;;4.82;1.65;;;;;;;14.03;72.41;101062.34;4994536;28;20027;-46
2022/09/30 11:21:27;;;;;;;6.82;1.98;;;;;;;14.06;72.15;101055.69;4994327;28;20070;-46
2022/09/30 11:24:18;;;;;;;6.72;2.40;;;;;;;14.08;72.28;101053.59;4992607;28;20057;-46
2022/09/30 11:27:05;;;;;;;7.72;2.33;;;;;;;13.97;72.56;101053.28;4986595;28;20403;-45
2022/09/30 11:30:00;;;;;;;11.60;2.60;;;;;;;14.06;72.43;101053.81;4993759;28;20418;-46
2022/09/30 11:32:44;;;;;;;13.88;3.03;;;;;;;13.90;73.13;101047.16;5001924;28;20036;-46
2022/09/30 11:35:40;;;;;;;8.17;2.80;;;;;;;13.62;74.38;101046.81;4994782;28;20045;-45
2022/09/30 11:38:22;;;;;;;8.23;2.47;;;;;;;13.78;73.82;101048.94;5021442;28;20025;-49
2022/09/30 11:41:03;;;;;;;7.85;2.30;;;;;;;13.81;73.86;101044.97;5018183;28;20034;-48
2022/09/30 11:43:38;;;;;;;13.20;2.50;;;;;;;13.82;73.89;101036.66;5011432;28;20033;-46
2022/09/30 11:46:17;;;;;;;10.75;2.55;;;;;;;13.78;73.99;101031.97;5014213;28;20052;-49
2022/09/30 11:48:55;;;;;;;8.77;2.45;;;;;;;13.34;74.91;101040.03;5014047;28;20026;-47
2022/09/30 11:51:30;;;;;;;4.85;1.75;;;;;;;13.41;74.66;101032.72;5008080;28;20344;-49
2022/09/30 11:54:20;;;;;;;5.68;2.40;;;;;;;13.55;73.73;101035.28;4994621;28;20541;-49